sensor_id;sensor_type;location;lat;lon;timestamp;temperature;humidity
5017;DHT22;2527;50.892;16.706;2023-05-16T00:01:00;14.90;99.90
5017;DHT22;2527;50.892;16.706;2023-05-16T00:03:26;14.90;99.90
5017;DHT22;2527;50.892;16.706;2023-05-16T00:05:52;14.90;99.90
5017;DHT22;2527;50.892;16.706;2023-05-16T00:08:17;14.90;99.90
5017;DHT22;2527;50.892;16.706;2023-05-16T00:10:43;14.90;99.90
5017;DHT22;2527;50.892;16.706;2023-05-16T00:13:09;14.90;99.90
5017;DHT22;2527;50.892;16.706;2023-05-16T00:15:34;15.00;99.90
5017;DHT22;2527;50.892;16.706;2023-05-16T00:18:00;15.00;99.90
5017;DHT22;2527;50.892;16.706;2023-05-16T00:20:26;15.00;99.90
5017;DHT22;2527;50.892;16.706;2023-05-16T00:22:52;15.00;99.90
5017;DHT22;2527;50.892;16.706;2023-05-16T00:25:18;15.00;99.90
5017;DHT22;2527;50.892;16.706;2023-05-16T00:27:43;15.00;99.90
5017;DHT22;2527;50.892;16.706;2023-05-16T00:30:09;15.10;99.90
5017;DHT22;2527;50.892;16.706;2023-05-16T00:32:35;15.10;99.90
5017;DHT22;2527;50.892;16.706;2023-05-16T00:35:01;15.10;99.90
5017;DHT22;2527;50.892;16.706;2023-05-16T00:37:26;15.00;99.90
5017;DHT22;2527;50.892;16.706;2023-05-16T00:39:52;15.00;99.90
5017;DHT22;2527;50.892;16.706;2023-05-16T00:42:18;15.00;99.90
5017;DHT22;2527;50.892;16.706;2023-05-16T00:44:44;15.00;99.90
5017;DHT22;2527;50.892;16.706;2023-05-16T00:47:10;15.00;99.90
5017;DHT22;2527;50.892;16.706;2023-05-16T00:49:35;15.00;99.90
5017;DHT22;2527;50.892;16.706;2023-05-16T00:52:02;15.00;99.90
5017;DHT22;2527;50.892;16.706;2023-05-16T00:54:28;14.90;99.90
5017;DHT22;2527;50.892;16.706;2023-05-16T00:56:54;14.90;99.90
5017;DHT22;2527;50.892;16.706;2023-05-16T00:59:23;14.90;99.90
5017;DHT22;2527;50.892;16.706;2023-05-16T01:01:49;14.90;99.90
5017;DHT22;2527;50.892;16.706;2023-05-16T01:04:15;14.90;99.90
5017;DHT22;2527;50.892;16.706;2023-05-16T01:06:41;15.00;99.90
5017;DHT22;2527;50.892;16.706;2023-05-16T01:09:06;14.90;99.90
5017;DHT22;2527;50.892;16.706;2023-05-16T01:11:42;15.00;99.90
5017;DHT22;2527;50.892;16.706;2023-05-16T01:14:16;15.00;99.90
5017;DHT22;2527;50.892;16.706;2023-05-16T01:16:49;15.00;99.90
5017;DHT22;2527;50.892;16.706;2023-05-16T01:19:27;14.90;99.90
5017;DHT22;2527;50.892;16.706;2023-05-16T01:27:07;14.90;99.90
5017;DHT22;2527;50.892;16.706;2023-05-16T01:29:33;14.90;99.90
5017;DHT22;2527;50.892;16.706;2023-05-16T01:31:58;14.90;99.90
5017;DHT22;2527;50.892;16.706;2023-05-16T01:34:24;14.90;99.90
5017;DHT22;2527;50.892;16.706;2023-05-16T01:37:34;14.80;99.90
5017;DHT22;2527;50.892;16.706;2023-05-16T01:42:09;14.80;99.90
5017;DHT22;2527;50.892;16.706;2023-05-16T01:44:42;14.80;99.90
5017;DHT22;2527;50.892;16.706;2023-05-16T01:47:10;14.80;99.90
5017;DHT22;2527;50.892;16.706;2023-05-16T01:52:43;14.80;99.90
5017;DHT22;2527;50.892;16.706;2023-05-16T01:55:10;14.80;99.90
5017;DHT22;2527;50.892;16.706;2023-05-16T01:57:39;14.80;99.90
5017;DHT22;2527;50.892;16.706;2023-05-16T02:00:06;14.80;99.90
5017;DHT22;2527;50.892;16.706;2023-05-16T02:02:32;14.80;99.90
5017;DHT22;2527;50.892;16.706;2023-05-16T02:04:58;14.80;99.90
5017;DHT22;2527;50.892;16.706;2023-05-16T02:07:24;14.80;99.90
5017;DHT22;2527;50.892;16.706;2023-05-16T02:09:49;14.80;99.90
5017;DHT22;2527;50.892;16.706;2023-05-16T02:12:15;14.80;99.90
5017;DHT22;2527;50.892;16.706;2023-05-16T02:14:41;14.80;99.90
5017;DHT22;2527;50.892;16.706;2023-05-16T02:17:06;14.80;99.90
5017;DHT22;2527;50.892;16.706;2023-05-16T02:19:32;14.80;99.90
5017;DHT22;2527;50.892;16.706;2023-05-16T02:21:58;14.80;99.90
5017;DHT22;2527;50.892;16.706;2023-05-16T02:24:24;14.80;99.90
5017;DHT22;2527;50.892;16.706;2023-05-16T02:26:49;14.80;99.90
5017;DHT22;2527;50.892;16.706;2023-05-16T02:29:15;14.80;99.90
5017;DHT22;2527;50.892;16.706;2023-05-16T02:31:41;14.80;99.90
5017;DHT22;2527;50.892;16.706;2023-05-16T02:34:09;14.80;99.90
5017;DHT22;2527;50.892;16.706;2023-05-16T02:36:35;14.80;99.90
5017;DHT22;2527;50.892;16.706;2023-05-16T02:39:01;14.80;99.90
5017;DHT22;2527;50.892;16.706;2023-05-16T02:41:28;14.70;99.90
5017;DHT22;2527;50.892;16.706;2023-05-16T02:43:53;14.70;99.90
5017;DHT22;2527;50.892;16.706;2023-05-16T02:46:23;14.60;99.90
5017;DHT22;2527;50.892;16.706;2023-05-16T02:48:49;14.60;99.90
5017;DHT22;2527;50.892;16.706;2023-05-16T02:51:16;14.60;99.90
5017;DHT22;2527;50.892;16.706;2023-05-16T02:53:42;14.60;99.90
5017;DHT22;2527;50.892;16.706;2023-05-16T02:56:07;14.60;99.90
5017;DHT22;2527;50.892;16.706;2023-05-16T02:58:34;14.60;99.90
5017;DHT22;2527;50.892;16.706;2023-05-16T03:01:00;14.60;99.90
5017;DHT22;2527;50.892;16.706;2023-05-16T03:03:25;14.60;99.90
5017;DHT22;2527;50.892;16.706;2023-05-16T03:05:51;14.60;99.90
5017;DHT22;2527;50.892;16.706;2023-05-16T03:08:17;14.60;99.90
5017;DHT22;2527;50.892;16.706;2023-05-16T03:10:43;14.60;99.90
5017;DHT22;2527;50.892;16.706;2023-05-16T03:13:08;14.60;99.90
5017;DHT22;2527;50.892;16.706;2023-05-16T03:15:34;14.60;99.90
5017;DHT22;2527;50.892;16.706;2023-05-16T03:17:59;14.70;99.90
5017;DHT22;2527;50.892;16.706;2023-05-16T03:20:25;14.70;99.90
5017;DHT22;2527;50.892;16.706;2023-05-16T03:22:51;14.70;99.90
5017;DHT22;2527;50.892;16.706;2023-05-16T03:25:16;14.70;99.90
5017;DHT22;2527;50.892;16.706;2023-05-16T03:27:42;14.80;99.90
5017;DHT22;2527;50.892;16.706;2023-05-16T03:30:07;14.80;99.90
5017;DHT22;2527;50.892;16.706;2023-05-16T03:32:33;14.80;99.90
5017;DHT22;2527;50.892;16.706;2023-05-16T03:34:59;14.80;99.90
5017;DHT22;2527;50.892;16.706;2023-05-16T03:37:24;14.90;99.90
5017;DHT22;2527;50.892;16.706;2023-05-16T03:39:50;15.00;99.90
5017;DHT22;2527;50.892;16.706;2023-05-16T03:42:16;15.00;99.90
5017;DHT22;2527;50.892;16.706;2023-05-16T03:44:42;15.00;99.90
5017;DHT22;2527;50.892;16.706;2023-05-16T03:47:08;15.00;99.90
5017;DHT22;2527;50.892;16.706;2023-05-16T03:49:34;15.10;99.90
5017;DHT22;2527;50.892;16.706;2023-05-16T03:52:01;15.10;99.90
5017;DHT22;2527;50.892;16.706;2023-05-16T03:54:27;15.10;99.90
5017;DHT22;2527;50.892;16.706;2023-05-16T03:56:53;15.20;99.90
5017;DHT22;2527;50.892;16.706;2023-05-16T03:59:18;15.30;99.90
5017;DHT22;2527;50.892;16.706;2023-05-16T04:01:44;15.30;99.90
5017;DHT22;2527;50.892;16.706;2023-05-16T04:04:09;15.40;99.90
5017;DHT22;2527;50.892;16.706;2023-05-16T04:06:35;15.60;99.90
5017;DHT22;2527;50.892;16.706;2023-05-16T04:09:00;16.00;99.90
5017;DHT22;2527;50.892;16.706;2023-05-16T04:11:26;16.50;99.90
5017;DHT22;2527;50.892;16.706;2023-05-16T04:13:52;16.90;99.90
5017;DHT22;2527;50.892;16.706;2023-05-16T04:16:18;17.80;99.90
5017;DHT22;2527;50.892;16.706;2023-05-16T04:18:45;18.70;99.90
5017;DHT22;2527;50.892;16.706;2023-05-16T04:21:10;19.60;99.90
5017;DHT22;2527;50.892;16.706;2023-05-16T04:23:39;20.30;99.90
5017;DHT22;2527;50.892;16.706;2023-05-16T04:26:05;21.10;99.90
5017;DHT22;2527;50.892;16.706;2023-05-16T04:28:31;21.80;99.90
5017;DHT22;2527;50.892;16.706;2023-05-16T04:30:57;22.60;99.90
5017;DHT22;2527;50.892;16.706;2023-05-16T04:33:22;23.20;99.90
5017;DHT22;2527;50.892;16.706;2023-05-16T04:35:48;23.70;99.90
5017;DHT22;2527;50.892;16.706;2023-05-16T04:38:14;24.30;99.90
5017;DHT22;2527;50.892;16.706;2023-05-16T04:40:39;25.00;99.90
5017;DHT22;2527;50.892;16.706;2023-05-16T04:43:08;25.70;99.90
5017;DHT22;2527;50.892;16.706;2023-05-16T04:45:34;26.40;99.90
5017;DHT22;2527;50.892;16.706;2023-05-16T04:48:00;26.90;99.90
5017;DHT22;2527;50.892;16.706;2023-05-16T04:50:25;27.50;99.90
5017;DHT22;2527;50.892;16.706;2023-05-16T04:52:51;28.20;99.90
5017;DHT22;2527;50.892;16.706;2023-05-16T04:55:17;28.80;99.90
5017;DHT22;2527;50.892;16.706;2023-05-16T04:57:42;29.40;99.90
5017;DHT22;2527;50.892;16.706;2023-05-16T05:00:08;30.00;99.90
5017;DHT22;2527;50.892;16.706;2023-05-16T05:02:36;30.50;99.90
5017;DHT22;2527;50.892;16.706;2023-05-16T05:05:03;30.90;99.90
5017;DHT22;2527;50.892;16.706;2023-05-16T05:07:29;31.20;99.90
5017;DHT22;2527;50.892;16.706;2023-05-16T05:09:54;31.40;99.90
5017;DHT22;2527;50.892;16.706;2023-05-16T05:12:20;31.80;99.90
5017;DHT22;2527;50.892;16.706;2023-05-16T05:14:46;31.70;99.90
5017;DHT22;2527;50.892;16.706;2023-05-16T05:17:12;32.10;99.90
5017;DHT22;2527;50.892;16.706;2023-05-16T05:19:37;32.60;99.90
5017;DHT22;2527;50.892;16.706;2023-05-16T05:22:03;32.90;99.90
5017;DHT22;2527;50.892;16.706;2023-05-16T05:24:29;33.20;99.90
5017;DHT22;2527;50.892;16.706;2023-05-16T05:26:54;33.70;99.90
5017;DHT22;2527;50.892;16.706;2023-05-16T05:29:20;34.10;99.90
5017;DHT22;2527;50.892;16.706;2023-05-16T05:31:46;34.40;99.90
5017;DHT22;2527;50.892;16.706;2023-05-16T05:34:12;34.10;99.90
5017;DHT22;2527;50.892;16.706;2023-05-16T05:36:38;34.00;99.90
5017;DHT22;2527;50.892;16.706;2023-05-16T05:39:04;34.10;99.90
5017;DHT22;2527;50.892;16.706;2023-05-16T05:41:29;34.00;99.90
5017;DHT22;2527;50.892;16.706;2023-05-16T05:43:56;34.20;99.90
5017;DHT22;2527;50.892;16.706;2023-05-16T05:46:22;34.20;99.90
5017;DHT22;2527;50.892;16.706;2023-05-16T05:48:48;33.90;99.90
5017;DHT22;2527;50.892;16.706;2023-05-16T05:51:14;33.60;99.90
5017;DHT22;2527;50.892;16.706;2023-05-16T05:53:40;33.40;99.90
5017;DHT22;2527;50.892;16.706;2023-05-16T05:56:06;33.10;99.90
5017;DHT22;2527;50.892;16.706;2023-05-16T05:58:31;33.00;99.90
5017;DHT22;2527;50.892;16.706;2023-05-16T06:00:57;32.90;99.90
5017;DHT22;2527;50.892;16.706;2023-05-16T06:03:22;32.70;99.90
5017;DHT22;2527;50.892;16.706;2023-05-16T06:05:48;32.40;99.90
5017;DHT22;2527;50.892;16.706;2023-05-16T06:08:14;32.20;99.90
5017;DHT22;2527;50.892;16.706;2023-05-16T06:10:40;32.20;99.90
5017;DHT22;2527;50.892;16.706;2023-05-16T06:13:05;31.90;99.90
5017;DHT22;2527;50.892;16.706;2023-05-16T06:15:31;31.40;99.90
5017;DHT22;2527;50.892;16.706;2023-05-16T06:17:57;30.70;99.90
5017;DHT22;2527;50.892;16.706;2023-05-16T06:20:22;29.70;99.90
5017;DHT22;2527;50.892;16.706;2023-05-16T06:22:48;28.80;99.90
5017;DHT22;2527;50.892;16.706;2023-05-16T06:25:14;28.00;99.90
5017;DHT22;2527;50.892;16.706;2023-05-16T06:27:39;27.30;99.90
5017;DHT22;2527;50.892;16.706;2023-05-16T06:30:06;26.70;99.90
5017;DHT22;2527;50.892;16.706;2023-05-16T06:32:33;26.20;99.90
5017;DHT22;2527;50.892;16.706;2023-05-16T06:34:59;25.70;99.90
5017;DHT22;2527;50.892;16.706;2023-05-16T06:37:25;25.30;99.90
5017;DHT22;2527;50.892;16.706;2023-05-16T06:39:50;25.00;99.90
5017;DHT22;2527;50.892;16.706;2023-05-16T06:42:16;24.70;99.90
5017;DHT22;2527;50.892;16.706;2023-05-16T06:44:41;24.50;99.90
5017;DHT22;2527;50.892;16.706;2023-05-16T06:47:07;24.30;99.90
5017;DHT22;2527;50.892;16.706;2023-05-16T06:49:33;24.10;99.90
5017;DHT22;2527;50.892;16.706;2023-05-16T06:51:58;24.00;99.90
5017;DHT22;2527;50.892;16.706;2023-05-16T06:54:25;23.90;99.90
5017;DHT22;2527;50.892;16.706;2023-05-16T06:56:51;23.80;99.90
5017;DHT22;2527;50.892;16.706;2023-05-16T06:59:16;23.70;99.90
5017;DHT22;2527;50.892;16.706;2023-05-16T07:01:42;23.70;99.90
5017;DHT22;2527;50.892;16.706;2023-05-16T07:04:08;23.60;99.90
5017;DHT22;2527;50.892;16.706;2023-05-16T07:06:34;23.60;99.90
5017;DHT22;2527;50.892;16.706;2023-05-16T07:08:59;23.60;99.90
5017;DHT22;2527;50.892;16.706;2023-05-16T07:11:26;23.60;99.90
5017;DHT22;2527;50.892;16.706;2023-05-16T07:13:52;23.50;99.90
5017;DHT22;2527;50.892;16.706;2023-05-16T07:16:18;23.30;99.90
5017;DHT22;2527;50.892;16.706;2023-05-16T07:18:43;23.20;99.90
5017;DHT22;2527;50.892;16.706;2023-05-16T07:21:09;23.10;99.90
5017;DHT22;2527;50.892;16.706;2023-05-16T07:23:35;22.90;99.90
5017;DHT22;2527;50.892;16.706;2023-05-16T07:26:01;22.70;99.90
5017;DHT22;2527;50.892;16.706;2023-05-16T07:28:27;22.60;99.90
5017;DHT22;2527;50.892;16.706;2023-05-16T07:30:52;22.50;99.90
5017;DHT22;2527;50.892;16.706;2023-05-16T07:33:19;22.40;99.90
5017;DHT22;2527;50.892;16.706;2023-05-16T07:35:44;22.30;99.90
5017;DHT22;2527;50.892;16.706;2023-05-16T07:38:10;22.30;99.90
5017;DHT22;2527;50.892;16.706;2023-05-16T07:40:37;22.20;99.90
5017;DHT22;2527;50.892;16.706;2023-05-16T07:43:04;22.00;99.90
5017;DHT22;2527;50.892;16.706;2023-05-16T07:45:29;21.90;99.90
5017;DHT22;2527;50.892;16.706;2023-05-16T07:47:55;21.80;99.90
5017;DHT22;2527;50.892;16.706;2023-05-16T07:50:20;21.60;99.90
5017;DHT22;2527;50.892;16.706;2023-05-16T07:52:46;21.50;99.90
5017;DHT22;2527;50.892;16.706;2023-05-16T07:55:12;21.40;99.90
5017;DHT22;2527;50.892;16.706;2023-05-16T07:57:38;21.30;99.90
5017;DHT22;2527;50.892;16.706;2023-05-16T08:00:04;21.20;99.90
5017;DHT22;2527;50.892;16.706;2023-05-16T08:02:29;21.10;99.90
5017;DHT22;2527;50.892;16.706;2023-05-16T08:04:55;20.90;99.90
5017;DHT22;2527;50.892;16.706;2023-05-16T08:07:23;20.80;99.90
5017;DHT22;2527;50.892;16.706;2023-05-16T08:09:50;20.70;99.90
5017;DHT22;2527;50.892;16.706;2023-05-16T08:12:16;20.60;99.90
5017;DHT22;2527;50.892;16.706;2023-05-16T08:14:41;20.50;99.90
5017;DHT22;2527;50.892;16.706;2023-05-16T08:17:07;20.40;99.90
5017;DHT22;2527;50.892;16.706;2023-05-16T08:19:33;20.40;99.90
5017;DHT22;2527;50.892;16.706;2023-05-16T08:22:00;20.30;99.90
5017;DHT22;2527;50.892;16.706;2023-05-16T08:24:27;20.20;99.90
5017;DHT22;2527;50.892;16.706;2023-05-16T08:26:52;20.10;99.90
5017;DHT22;2527;50.892;16.706;2023-05-16T08:29:18;20.00;99.90
5017;DHT22;2527;50.892;16.706;2023-05-16T08:31:44;20.00;99.90
5017;DHT22;2527;50.892;16.706;2023-05-16T08:34:10;19.90;99.90
5017;DHT22;2527;50.892;16.706;2023-05-16T08:36:36;20.00;99.90
5017;DHT22;2527;50.892;16.706;2023-05-16T08:39:03;20.00;99.90
5017;DHT22;2527;50.892;16.706;2023-05-16T08:41:29;19.90;99.90
5017;DHT22;2527;50.892;16.706;2023-05-16T08:43:55;19.90;99.90
5017;DHT22;2527;50.892;16.706;2023-05-16T08:46:21;19.90;99.90
5017;DHT22;2527;50.892;16.706;2023-05-16T08:48:50;19.80;99.90
5017;DHT22;2527;50.892;16.706;2023-05-16T08:51:19;19.70;99.90
5017;DHT22;2527;50.892;16.706;2023-05-16T08:53:49;19.70;99.90
5017;DHT22;2527;50.892;16.706;2023-05-16T08:56:16;19.60;99.90
5017;DHT22;2527;50.892;16.706;2023-05-16T08:58:43;19.50;99.90
5017;DHT22;2527;50.892;16.706;2023-05-16T09:01:09;19.50;99.90
5017;DHT22;2527;50.892;16.706;2023-05-16T09:03:36;19.40;99.90
5017;DHT22;2527;50.892;16.706;2023-05-16T09:06:03;19.40;99.90
5017;DHT22;2527;50.892;16.706;2023-05-16T09:08:30;19.40;99.90
5017;DHT22;2527;50.892;16.706;2023-05-16T09:10:55;19.40;99.90
5017;DHT22;2527;50.892;16.706;2023-05-16T09:13:21;19.40;99.90
5017;DHT22;2527;50.892;16.706;2023-05-16T09:16:03;19.40;99.90
5017;DHT22;2527;50.892;16.706;2023-05-16T09:18:32;19.30;99.90
5017;DHT22;2527;50.892;16.706;2023-05-16T09:20:59;19.30;99.90
5017;DHT22;2527;50.892;16.706;2023-05-16T09:23:25;19.20;99.90
5017;DHT22;2527;50.892;16.706;2023-05-16T09:25:51;19.20;99.90
5017;DHT22;2527;50.892;16.706;2023-05-16T09:28:18;19.20;99.90
5017;DHT22;2527;50.892;16.706;2023-05-16T09:30:45;19.10;99.90
5017;DHT22;2527;50.892;16.706;2023-05-16T09:33:11;19.10;99.90
5017;DHT22;2527;50.892;16.706;2023-05-16T09:35:36;19.10;99.90
5017;DHT22;2527;50.892;16.706;2023-05-16T09:38:03;19.10;99.90
5017;DHT22;2527;50.892;16.706;2023-05-16T09:40:28;19.10;99.90
5017;DHT22;2527;50.892;16.706;2023-05-16T09:43:04;19.00;99.90
5017;DHT22;2527;50.892;16.706;2023-05-16T09:45:33;19.00;99.90
5017;DHT22;2527;50.892;16.706;2023-05-16T09:50:28;19.00;99.90
5017;DHT22;2527;50.892;16.706;2023-05-16T09:52:54;19.00;99.90
5017;DHT22;2527;50.892;16.706;2023-05-16T09:55:21;19.00;99.90
5017;DHT22;2527;50.892;16.706;2023-05-16T09:57:48;19.00;99.90
5017;DHT22;2527;50.892;16.706;2023-05-16T10:00:13;19.00;99.90
5017;DHT22;2527;50.892;16.706;2023-05-16T10:02:40;19.00;99.90
5017;DHT22;2527;50.892;16.706;2023-05-16T10:05:06;19.00;99.90
5017;DHT22;2527;50.892;16.706;2023-05-16T10:07:32;19.00;99.90
5017;DHT22;2527;50.892;16.706;2023-05-16T10:10:05;19.00;99.90
5017;DHT22;2527;50.892;16.706;2023-05-16T10:12:32;19.00;99.90
5017;DHT22;2527;50.892;16.706;2023-05-16T10:15:02;18.90;99.90
5017;DHT22;2527;50.892;16.706;2023-05-16T10:17:29;18.90;99.90
5017;DHT22;2527;50.892;16.706;2023-05-16T10:19:57;18.80;99.90
5017;DHT22;2527;50.892;16.706;2023-05-16T10:22:25;18.80;99.90
5017;DHT22;2527;50.892;16.706;2023-05-16T10:24:57;18.80;99.90
5017;DHT22;2527;50.892;16.706;2023-05-16T10:27:25;18.80;99.90
5017;DHT22;2527;50.892;16.706;2023-05-16T10:29:50;18.80;99.90
5017;DHT22;2527;50.892;16.706;2023-05-16T10:32:16;18.80;99.90
5017;DHT22;2527;50.892;16.706;2023-05-16T10:34:43;18.80;99.90
5017;DHT22;2527;50.892;16.706;2023-05-16T10:37:11;18.80;99.90
5017;DHT22;2527;50.892;16.706;2023-05-16T10:39:37;18.80;99.90
5017;DHT22;2527;50.892;16.706;2023-05-16T10:42:04;18.80;99.90
5017;DHT22;2527;50.892;16.706;2023-05-16T10:44:31;18.70;99.90
5017;DHT22;2527;50.892;16.706;2023-05-16T10:46:58;18.60;99.90
5017;DHT22;2527;50.892;16.706;2023-05-16T10:49:25;18.60;99.90
5017;DHT22;2527;50.892;16.706;2023-05-16T10:54:49;18.40;99.90
5017;DHT22;2527;50.892;16.706;2023-05-16T10:57:22;18.30;99.90
5017;DHT22;2527;50.892;16.706;2023-05-16T10:59:48;18.30;99.90
5017;DHT22;2527;50.892;16.706;2023-05-16T11:02:27;18.30;99.90
5017;DHT22;2527;50.892;16.706;2023-05-16T11:04:58;18.30;99.90
5017;DHT22;2527;50.892;16.706;2023-05-16T11:07:24;18.30;99.90
5017;DHT22;2527;50.892;16.706;2023-05-16T11:12:37;18.30;99.90
5017;DHT22;2527;50.892;16.706;2023-05-16T11:15:30;18.30;99.90
5017;DHT22;2527;50.892;16.706;2023-05-16T11:20:37;18.30;99.90
5017;DHT22;2527;50.892;16.706;2023-05-16T11:23:21;18.30;99.90
5017;DHT22;2527;50.892;16.706;2023-05-16T11:25:53;18.30;99.90
5017;DHT22;2527;50.892;16.706;2023-05-16T11:28:19;18.30;99.90
5017;DHT22;2527;50.892;16.706;2023-05-16T11:30:48;18.30;99.90
5017;DHT22;2527;50.892;16.706;2023-05-16T11:33:15;18.30;99.90
5017;DHT22;2527;50.892;16.706;2023-05-16T11:35:43;18.30;99.90
5017;DHT22;2527;50.892;16.706;2023-05-16T11:38:24;18.30;99.90
5017;DHT22;2527;50.892;16.706;2023-05-16T11:40:50;18.40;99.90
5017;DHT22;2527;50.892;16.706;2023-05-16T11:43:19;18.40;99.90
5017;DHT22;2527;50.892;16.706;2023-05-16T11:45:45;18.40;99.90
5017;DHT22;2527;50.892;16.706;2023-05-16T11:48:12;18.50;99.90
5017;DHT22;2527;50.892;16.706;2023-05-16T11:50:37;18.50;99.90
5017;DHT22;2527;50.892;16.706;2023-05-16T11:53:03;18.50;99.90
5017;DHT22;2527;50.892;16.706;2023-05-16T11:55:29;18.50;99.90
5017;DHT22;2527;50.892;16.706;2023-05-16T11:57:58;18.60;99.90
5017;DHT22;2527;50.892;16.706;2023-05-16T12:00:25;18.60;99.90
5017;DHT22;2527;50.892;16.706;2023-05-16T12:02:51;18.70;99.90
5017;DHT22;2527;50.892;16.706;2023-05-16T12:05:18;18.70;99.90
5017;DHT22;2527;50.892;16.706;2023-05-16T12:07:45;18.70;99.90
5017;DHT22;2527;50.892;16.706;2023-05-16T12:10:12;18.80;99.90
5017;DHT22;2527;50.892;16.706;2023-05-16T12:12:40;18.70;99.90
5017;DHT22;2527;50.892;16.706;2023-05-16T12:15:07;18.70;99.90
5017;DHT22;2527;50.892;16.706;2023-05-16T12:17:33;18.80;99.90
5017;DHT22;2527;50.892;16.706;2023-05-16T12:19:59;18.70;99.90
5017;DHT22;2527;50.892;16.706;2023-05-16T12:22:34;18.70;99.90
5017;DHT22;2527;50.892;16.706;2023-05-16T12:27:45;18.50;99.90
5017;DHT22;2527;50.892;16.706;2023-05-16T12:30:11;18.40;99.90
5017;DHT22;2527;50.892;16.706;2023-05-16T12:32:37;18.40;99.90
5017;DHT22;2527;50.892;16.706;2023-05-16T12:35:03;18.30;99.90
5017;DHT22;2527;50.892;16.706;2023-05-16T12:37:28;18.30;99.90
5017;DHT22;2527;50.892;16.706;2023-05-16T12:40:00;18.20;99.90
5017;DHT22;2527;50.892;16.706;2023-05-16T12:42:26;18.20;99.90
5017;DHT22;2527;50.892;16.706;2023-05-16T12:44:54;18.10;99.90
5017;DHT22;2527;50.892;16.706;2023-05-16T12:47:21;18.10;99.90
5017;DHT22;2527;50.892;16.706;2023-05-16T12:49:47;18.00;99.90
5017;DHT22;2527;50.892;16.706;2023-05-16T12:52:18;18.00;99.90
5017;DHT22;2527;50.892;16.706;2023-05-16T12:54:46;17.90;99.90
5017;DHT22;2527;50.892;16.706;2023-05-16T12:57:13;17.90;99.90
5017;DHT22;2527;50.892;16.706;2023-05-16T12:59:39;17.90;99.90
5017;DHT22;2527;50.892;16.706;2023-05-16T13:02:04;17.80;99.90
5017;DHT22;2527;50.892;16.706;2023-05-16T13:04:30;17.80;99.90
5017;DHT22;2527;50.892;16.706;2023-05-16T13:06:56;17.80;99.90
5017;DHT22;2527;50.892;16.706;2023-05-16T13:09:22;17.80;99.90
5017;DHT22;2527;50.892;16.706;2023-05-16T13:11:48;17.70;99.90
5017;DHT22;2527;50.892;16.706;2023-05-16T13:14:15;17.70;99.90
5017;DHT22;2527;50.892;16.706;2023-05-16T13:16:42;17.70;99.90
5017;DHT22;2527;50.892;16.706;2023-05-16T13:19:08;17.70;99.90
5017;DHT22;2527;50.892;16.706;2023-05-16T13:21:34;17.70;99.90
5017;DHT22;2527;50.892;16.706;2023-05-16T13:23:59;17.70;99.90
5017;DHT22;2527;50.892;16.706;2023-05-16T13:26:25;17.60;99.90
5017;DHT22;2527;50.892;16.706;2023-05-16T13:28:51;17.60;99.90
5017;DHT22;2527;50.892;16.706;2023-05-16T13:31:19;17.60;99.90
5017;DHT22;2527;50.892;16.706;2023-05-16T13:33:45;17.60;99.90
5017;DHT22;2527;50.892;16.706;2023-05-16T13:36:11;17.50;99.90
5017;DHT22;2527;50.892;16.706;2023-05-16T13:38:36;17.50;99.90
5017;DHT22;2527;50.892;16.706;2023-05-16T13:41:02;17.50;99.90
5017;DHT22;2527;50.892;16.706;2023-05-16T13:43:28;17.50;99.90
5017;DHT22;2527;50.892;16.706;2023-05-16T13:45:54;17.40;99.90
5017;DHT22;2527;50.892;16.706;2023-05-16T13:48:20;17.40;99.90
5017;DHT22;2527;50.892;16.706;2023-05-16T13:50:46;17.30;99.90
5017;DHT22;2527;50.892;16.706;2023-05-16T13:53:11;17.30;99.90
5017;DHT22;2527;50.892;16.706;2023-05-16T13:55:37;17.20;99.90
5017;DHT22;2527;50.892;16.706;2023-05-16T13:58:02;17.20;99.90
5017;DHT22;2527;50.892;16.706;2023-05-16T14:00:28;17.20;99.90
5017;DHT22;2527;50.892;16.706;2023-05-16T14:02:54;17.10;99.90
5017;DHT22;2527;50.892;16.706;2023-05-16T14:05:21;17.10;99.90
5017;DHT22;2527;50.892;16.706;2023-05-16T14:07:47;17.00;99.90
5017;DHT22;2527;50.892;16.706;2023-05-16T14:10:12;17.00;99.90
5017;DHT22;2527;50.892;16.706;2023-05-16T14:12:38;16.90;99.90
5017;DHT22;2527;50.892;16.706;2023-05-16T14:15:04;16.90;99.90
5017;DHT22;2527;50.892;16.706;2023-05-16T14:17:30;16.90;99.90
5017;DHT22;2527;50.892;16.706;2023-05-16T14:19:57;16.80;99.90
5017;DHT22;2527;50.892;16.706;2023-05-16T14:22:22;16.80;99.90
5017;DHT22;2527;50.892;16.706;2023-05-16T14:24:48;16.70;99.90
5017;DHT22;2527;50.892;16.706;2023-05-16T14:27:15;16.70;99.90
5017;DHT22;2527;50.892;16.706;2023-05-16T14:29:41;16.60;99.90
5017;DHT22;2527;50.892;16.706;2023-05-16T14:32:08;16.60;99.90
5017;DHT22;2527;50.892;16.706;2023-05-16T14:34:35;16.60;99.90
5017;DHT22;2527;50.892;16.706;2023-05-16T14:37:01;16.60;99.90
5017;DHT22;2527;50.892;16.706;2023-05-16T14:39:26;16.60;99.90
5017;DHT22;2527;50.892;16.706;2023-05-16T14:41:52;16.60;99.90
5017;DHT22;2527;50.892;16.706;2023-05-16T14:44:18;16.60;99.90
5017;DHT22;2527;50.892;16.706;2023-05-16T14:46:46;16.50;99.90
5017;DHT22;2527;50.892;16.706;2023-05-16T14:49:12;16.50;99.90
5017;DHT22;2527;50.892;16.706;2023-05-16T14:51:38;16.50;99.90
5017;DHT22;2527;50.892;16.706;2023-05-16T14:54:03;16.50;99.90
5017;DHT22;2527;50.892;16.706;2023-05-16T14:56:30;16.40;99.90
5017;DHT22;2527;50.892;16.706;2023-05-16T14:58:56;16.40;99.90
5017;DHT22;2527;50.892;16.706;2023-05-16T15:01:22;16.30;99.90
5017;DHT22;2527;50.892;16.706;2023-05-16T15:03:47;16.30;99.90
5017;DHT22;2527;50.892;16.706;2023-05-16T15:06:13;16.30;99.90
5017;DHT22;2527;50.892;16.706;2023-05-16T15:08:39;16.30;99.90
5017;DHT22;2527;50.892;16.706;2023-05-16T15:11:04;16.20;99.90
5017;DHT22;2527;50.892;16.706;2023-05-16T15:13:30;16.20;99.90
5017;DHT22;2527;50.892;16.706;2023-05-16T15:15:57;16.20;99.90
5017;DHT22;2527;50.892;16.706;2023-05-16T15:18:23;16.10;99.90
5017;DHT22;2527;50.892;16.706;2023-05-16T15:20:50;16.10;99.90
5017;DHT22;2527;50.892;16.706;2023-05-16T15:23:17;16.00;99.90
5017;DHT22;2527;50.892;16.706;2023-05-16T15:25:43;16.00;99.90
5017;DHT22;2527;50.892;16.706;2023-05-16T15:28:09;16.00;99.90
5017;DHT22;2527;50.892;16.706;2023-05-16T15:30:34;16.00;99.90
5017;DHT22;2527;50.892;16.706;2023-05-16T15:33:00;16.00;99.90
5017;DHT22;2527;50.892;16.706;2023-05-16T15:35:26;15.90;99.90
5017;DHT22;2527;50.892;16.706;2023-05-16T15:37:52;15.90;99.90
5017;DHT22;2527;50.892;16.706;2023-05-16T15:40:18;15.90;99.90
5017;DHT22;2527;50.892;16.706;2023-05-16T15:42:43;15.90;99.90
5017;DHT22;2527;50.892;16.706;2023-05-16T15:45:10;15.80;99.90
5017;DHT22;2527;50.892;16.706;2023-05-16T15:47:36;15.80;99.90
5017;DHT22;2527;50.892;16.706;2023-05-16T15:50:02;15.80;99.90
5017;DHT22;2527;50.892;16.706;2023-05-16T15:52:29;15.70;99.90
5017;DHT22;2527;50.892;16.706;2023-05-16T15:54:56;15.70;99.90
5017;DHT22;2527;50.892;16.706;2023-05-16T15:57:22;15.70;99.90
5017;DHT22;2527;50.892;16.706;2023-05-16T15:59:48;15.70;99.90
5017;DHT22;2527;50.892;16.706;2023-05-16T16:02:14;15.60;99.90
5017;DHT22;2527;50.892;16.706;2023-05-16T16:04:40;15.60;99.90